Time;durP1;ratioP1;P1;durP2;ratioP2;P2;SDS_P1;SDS_P2;PMS_P1;PMS_P2;Temp;Humidity;BMP_temperature;BMP_pressure;BME280_temperature;BME280_humidity;BME280_pressure;Samples;Min_cycle;Max_cycle;Signal;HPM_P1;HPM_P2
2022/10/03 00:00:59;;;;;;;19.73;10.82;;;12.70;99.90;;;;;;5054891;28;20079;-71
2022/10/03 00:03:37;;;;;;;16.08;9.63;;;12.70;99.90;;;;;;5058436;28;20052;-73
2022/10/03 00:06:10;;;;;;;14.90;9.65;;;12.70;99.90;;;;;;5051044;28;20037;-72
2022/10/03 00:09:09;;;;;;;18.05;9.30;;;12.80;99.90;;;;;;5038177;28;20041;-74
2022/10/03 00:11:49;;;;;;;14.25;8.75;;;12.90;99.90;;;;;;5054463;28;20401;-73
2022/10/03 00:14:28;;;;;;;11.85;7.53;;;12.90;99.90;;;;;;5054927;28;20041;-72
2022/10/03 00:17:03;;;;;;;18.35;9.13;;;12.90;99.90;;;;;;5055922;28;20389;-73
2022/10/03 00:19:43;;;;;;;24.42;9.43;;;13.00;99.90;;;;;;5055105;28;20496;-72
2022/10/03 00:22:22;;;;;;;19.10;10.48;;;13.00;99.90;;;;;;5054079;28;20400;-73
2022/10/03 00:25:02;;;;;;;15.85;9.52;;;13.00;99.90;;;;;;5034630;28;20049;-73
2022/10/03 00:27:36;;;;;;;14.52;9.73;;;13.00;99.90;;;;;;5034711;28;20171;-73
2022/10/03 00:30:19;;;;;;;16.85;10.60;;;13.00;99.90;;;;;;5033264;28;20048;-73
2022/10/03 00:33:04;;;;;;;13.50;10.10;;;13.10;99.90;;;;;;5034154;28;20091;-73
2022/10/03 00:36:01;;;;;;;15.80;9.73;;;13.10;99.90;;;;;;5052058;28;20041;-73
2022/10/03 00:38:58;;;;;;;15.73;10.07;;;13.10;99.90;;;;;;5054292;28;20049;-72
2022/10/03 00:42:00;;;;;;;18.92;10.50;;;13.20;99.90;;;;;;5054969;28;20033;-73
2022/10/03 00:45:00;;;;;;;17.80;9.57;;;13.20;99.90;;;;;;5053799;28;20044;-73
2022/10/03 00:47:59;;;;;;;23.02;10.60;;;13.20;99.90;;;;;;5053464;28;20496;-73
2022/10/03 00:50:53;;;;;;;26.75;10.93;;;13.20;99.90;;;;;;5053376;28;20041;-73
2022/10/03 00:53:45;;;;;;;18.30;10.30;;;13.20;99.90;;;;;;5045569;28;20040;-73
2022/10/03 00:56:34;;;;;;;17.30;10.35;;;13.30;99.90;;;;;;5053418;28;20060;-73
2022/10/03 00:59:16;;;;;;;13.68;9.15;;;13.30;99.90;;;;;;5046379;28;20480;-73
2022/10/03 01:01:47;;;;;;;17.58;8.93;;;13.30;99.90;;;;;;5053377;28;20488;-73
2022/10/03 01:04:39;;;;;;;17.60;9.18;;;13.30;99.90;;;;;;5052004;28;20040;-73
2022/10/03 01:07:24;;;;;;;12.50;8.90;;;13.30;99.90;;;;;;5046037;28;20037;-73
2022/10/03 01:10:04;;;;;;;16.13;9.63;;;13.20;99.90;;;;;;5046241;28;20136;-73
2022/10/03 01:12:55;;;;;;;19.73;11.18;;;13.20;99.90;;;;;;5039218;28;20484;-73
2022/10/03 01:15:31;;;;;;;17.23;8.88;;;13.20;99.90;;;;;;5053284;28;20048;-72
2022/10/03 01:18:10;;;;;;;16.40;9.98;;;13.30;99.90;;;;;;5053866;28;20485;-73
2022/10/03 01:20:50;;;;;;;16.45;10.02;;;13.30;99.90;;;;;;5053302;28;20439;-73
2022/10/03 01:23:51;;;;;;;21.90;10.85;;;13.20;99.90;;;;;;5053411;28;20045;-73
2022/10/03 01:26:56;;;;;;;23.40;13.88;;;13.20;99.90;;;;;;5053429;28;20054;-73
2022/10/03 01:32:29;;;;;;;27.17;17.65;;;13.20;99.90;;;;;;5053105;28;20045;-73
2022/10/03 01:35:07;;;;;;;18.42;10.43;;;13.30;99.90;;;;;;5053397;28;20552;-73
2022/10/03 01:37:43;;;;;;;16.50;9.30;;;13.30;99.90;;;;;;5053307;28;20123;-73
2022/10/03 01:40:19;;;;;;;17.65;9.07;;;13.30;99.90;;;;;;5053383;28;20095;-73
2022/10/03 01:43:16;;;;;;;16.52;8.32;;;13.20;99.90;;;;;;5053374;28;20064;-73
2022/10/03 01:45:55;;;;;;;15.45;8.65;;;13.10;99.90;;;;;;5052835;28;20099;-73
2022/10/03 01:48:30;;;;;;;11.27;8.13;;;13.10;99.90;;;;;;5052981;28;20053;-73
2022/10/03 01:51:05;;;;;;;16.98;9.38;;;13.10;99.90;;;;;;5052819;28;20064;-74
2022/10/03 01:53:46;;;;;;;17.10;8.50;;;13.20;99.90;;;;;;5052467;28;20047;-73
2022/10/03 01:56:24;;;;;;;17.13;9.05;;;13.20;99.90;;;;;;5052707;28;20132;-73
2022/10/03 01:59:00;;;;;;;14.13;8.93;;;13.30;99.90;;;;;;5052255;28;20055;-73
2022/10/03 02:01:39;;;;;;;15.48;9.55;;;13.30;99.90;;;;;;5052306;28;20096;-73
2022/10/03 02:04:17;;;;;;;15.85;10.20;;;13.30;99.90;;;;;;5051601;28;20091;-73
2022/10/03 02:06:53;;;;;;;13.23;8.80;;;13.40;99.90;;;;;;5044996;28;20068;-73
2022/10/03 02:09:30;;;;;;;17.52;8.35;;;13.50;99.90;;;;;;5044733;28;20138;-73
2022/10/03 02:12:06;;;;;;;13.20;8.25;;;13.50;99.90;;;;;;5053002;28;20432;-73
2022/10/03 02:14:35;;;;;;;;;;;13.50;99.90;;;;;;5053019;28;20090;-73
2022/10/03 02:17:12;;;;;;;17.40;9.70;;;13.60;99.90;;;;;;5052847;28;20011;-73
2022/10/03 02:19:49;;;;;;;20.90;11.23;;;13.40;99.90;;;;;;5052768;28;20051;-73
2022/10/03 02:22:29;;;;;;;14.18;9.90;;;13.40;99.90;;;;;;5052614;28;20041;-74
2022/10/03 02:25:11;;;;;;;15.63;9.57;;;13.50;99.90;;;;;;5052799;28;20099;-73
2022/10/03 02:28:12;;;;;;;18.60;9.10;;;13.50;99.90;;;;;;5053288;28;20069;-73
2022/10/03 02:30:56;;;;;;;17.13;9.68;;;13.50;99.90;;;;;;5052732;28;20128;-73
2022/10/03 02:34:00;;;;;;;16.52;10.15;;;13.50;99.90;;;;;;5052532;28;20095;-73
2022/10/03 02:36:59;;;;;;;17.85;10.60;;;13.50;99.90;;;;;;5052678;28;20451;-73
2022/10/03 02:40:16;;;;;;;14.77;10.40;;;13.50;99.90;;;;;;5054041;28;20132;-73
2022/10/03 02:43:29;;;;;;;18.23;10.13;;;13.50;99.90;;;;;;5029685;28;20041;-73
2022/10/03 02:46:42;;;;;;;18.20;10.65;;;13.60;99.90;;;;;;5056088;28;20044;-73
2022/10/03 02:49:49;;;;;;;15.93;11.30;;;13.60;99.90;;;;;;5053739;28;20071;-72
2022/10/03 02:52:43;;;;;;;23.08;11.63;;;13.60;99.90;;;;;;5056422;28;20076;-72
2022/10/03 02:55:32;;;;;;;16.40;11.48;;;13.60;99.90;;;;;;5038185;28;20049;-73
2022/10/03 02:58:26;;;;;;;15.70;10.70;;;13.70;99.90;;;;;;5059714;28;20591;-73
2022/10/03 03:01:28;;;;;;;16.05;11.25;;;13.80;99.90;;;;;;5059464;28;20049;-73
2022/10/03 03:04:46;;;;;;;15.93;9.73;;;13.80;99.90;;;;;;5036990;28;20144;-73
2022/10/03 03:07:37;;;;;;;15.18;9.23;;;13.80;99.90;;;;;;5032577;28;20078;-73
2022/10/03 03:10:34;;;;;;;10.80;5.80;;;13.90;99.90;;;;;;5045417;28;20040;-73
2022/10/03 03:13:35;;;;;;;12.35;6.80;;;13.80;99.90;;;;;;5055752;28;20056;-73
2022/10/03 03:16:33;;;;;;;12.32;7.28;;;13.80;99.90;;;;;;5053650;28;20060;-73
2022/10/03 03:19:31;;;;;;;9.23;6.28;;;13.80;99.90;;;;;;5055133;28;20091;-73
2022/10/03 03:22:08;;;;;;;8.25;4.82;;;13.80;99.90;;;;;;5045850;28;20036;-73
2022/10/03 03:24:50;;;;;;;7.22;4.30;;;13.80;99.90;;;;;;5055057;28;20039;-74
2022/10/03 03:27:36;;;;;;;7.70;5.07;;;13.80;99.90;;;;;;5048149;28;20049;-74
2022/10/03 03:30:06;;;;;;;;;;;13.80;99.90;;;;;;5055671;28;20497;-74
2022/10/03 03:32:53;;;;;;;6.97;3.90;;;13.80;99.90;;;;;;5056568;28;19953;-74
2022/10/03 03:35:33;;;;;;;5.68;3.50;;;13.80;99.90;;;;;;5053599;28;20147;-73
2022/10/03 03:38:13;;;;;;;6.75;3.55;;;13.80;99.90;;;;;;5055550;28;20052;-74
2022/10/03 03:40:55;;;;;;;6.55;3.20;;;13.70;99.90;;;;;;5055612;28;20075;-73
2022/10/03 03:43:51;;;;;;;5.22;2.78;;;13.70;99.90;;;;;;5054986;28;20044;-74
2022/10/03 03:46:33;;;;;;;4.45;2.83;;;13.70;99.90;;;;;;5054087;28;20048;-74
2022/10/03 03:49:09;;;;;;;5.47;3.40;;;13.70;99.90;;;;;;5035317;28;20045;-74
2022/10/03 03:51:45;;;;;;;5.53;3.60;;;13.70;99.90;;;;;;5052844;28;20069;-73
2022/10/03 03:54:40;;;;;;;4.97;3.63;;;13.70;99.90;;;;;;5053573;28;20067;-74
2022/10/03 03:57:28;;;;;;;5.25;3.90;;;13.80;99.90;;;;;;5052480;28;20123;-74
2022/10/03 04:00:07;;;;;;;8.50;4.15;;;13.80;99.90;;;;;;5053102;28;20124;-73
2022/10/03 04:02:52;;;;;;;6.25;3.40;;;13.80;99.90;;;;;;5051501;28;20079;-74
2022/10/03 04:05:34;;;;;;;6.68;3.80;;;13.80;99.90;;;;;;5050966;28;20095;-74
2022/10/03 04:08:24;;;;;;;6.85;3.50;;;13.70;99.90;;;;;;5048839;28;20496;-74
2022/10/03 04:11:02;;;;;;;4.70;3.03;;;13.80;99.90;;;;;;5046943;28;20063;-74
2022/10/03 04:13:50;;;;;;;4.88;2.88;;;13.70;99.90;;;;;;5053338;28;20091;-74
2022/10/03 04:19:32;;;;;;;6.15;3.50;;;13.70;99.90;;;;;;5051685;28;20115;-74
2022/10/03 04:22:11;;;;;;;6.97;3.60;;;13.70;99.90;;;;;;5051605;28;20130;-74
2022/10/03 04:25:14;;;;;;;7.47;4.75;;;13.70;99.90;;;;;;5035464;28;20064;-74
2022/10/03 04:28:09;;;;;;;8.35;4.40;;;13.80;99.90;;;;;;5038299;28;20049;-74
2022/10/03 04:30:52;;;;;;;6.88;4.47;;;13.80;99.90;;;;;;5056913;28;20071;-74
2022/10/03 04:33:35;;;;;;;6.22;3.65;;;13.80;99.90;;;;;;5051245;28;20037;-75
2022/10/03 04:36:38;;;;;;;6.25;4.38;;;13.80;99.90;;;;;;5039616;28;20053;-74
2022/10/03 04:39:15;;;;;;;10.00;4.95;;;13.80;99.90;;;;;;5039310;28;20431;-74
2022/10/03 04:41:49;;;;;;;9.23;5.50;;;13.80;99.90;;;;;;5039659;28;20037;-73
2022/10/03 04:44:29;;;;;;;8.90;5.50;;;13.80;99.90;;;;;;5040848;28;20072;-73
2022/10/03 04:47:03;;;;;;;10.45;6.80;;;13.80;99.90;;;;;;5043173;28;20515;-72
2022/10/03 04:49:37;;;;;;;11.65;6.32;;;13.80;99.90;;;;;;5038354;28;20041;-72
2022/10/03 04:52:15;;;;;;;7.07;5.20;;;13.90;99.90;;;;;;5034962;28;20080;-73
2022/10/03 04:54:52;;;;;;;8.40;4.80;;;13.90;99.90;;;;;;5047914;28;20064;-73
2022/10/03 04:57:28;;;;;;;31.05;7.18;;;13.80;99.90;;;;;;5055330;28;20124;-73
2022/10/03 05:00:07;;;;;;;12.05;6.35;;;13.90;99.90;;;;;;5060850;28;20082;-74
2022/10/03 05:02:50;;;;;;;16.98;8.02;;;13.90;99.90;;;;;;5057623;28;20041;-73
2022/10/03 05:05:48;;;;;;;13.52;7.80;;;13.90;99.90;;;;;;5053595;28;20064;-73
2022/10/03 05:08:28;;;;;;;36.80;12.90;;;13.90;99.90;;;;;;5051881;28;20083;-74
2022/10/03 05:11:11;;;;;;;10.75;7.78;;;14.00;99.90;;;;;;5038406;28;20504;-73
2022/10/03 05:13:53;;;;;;;22.58;8.32;;;14.00;99.90;;;;;;5050136;28;20053;-73
2022/10/03 05:16:30;;;;;;;14.82;8.98;;;14.10;99.90;;;;;;5059432;28;20064;-73
2022/10/03 05:19:09;;;;;;;15.75;12.85;;;14.10;99.90;;;;;;5056322;28;20067;-73
2022/10/03 05:21:41;;;;;;;15.70;11.23;;;14.10;99.90;;;;;;5046889;28;20071;-73
2022/10/03 05:24:16;;;;;;;21.05;14.10;;;14.10;99.90;;;;;;5045857;28;20049;-74
2022/10/03 05:26:51;;;;;;;17.00;12.60;;;14.10;99.90;;;;;;5036064;28;20042;-74
2022/10/03 05:29:28;;;;;;;25.52;14.43;;;14.10;99.90;;;;;;5035538;28;20045;-74
2022/10/03 05:32:13;;;;;;;26.90;21.88;;;14.10;99.90;;;;;;5034490;28;20041;-74
2022/10/03 05:35:01;;;;;;;19.52;13.98;;;14.20;99.90;;;;;;5034709;28;20037;-74
2022/10/03 05:37:53;;;;;;;25.25;15.68;;;14.20;99.90;;;;;;5034225;28;20077;-74
2022/10/03 05:40:24;;;;;;;23.85;13.75;;;14.30;99.90;;;;;;5034460;28;20435;-74
2022/10/03 05:43:02;;;;;;;23.83;15.40;;;14.30;99.90;;;;;;5031751;28;20046;-74
2022/10/03 05:45:38;;;;;;;30.92;16.35;;;14.30;99.90;;;;;;5033941;28;20045;-74
2022/10/03 05:48:20;;;;;;;34.05;18.58;;;14.30;99.90;;;;;;5050784;28;20052;-74
2022/10/03 05:51:17;;;;;;;29.90;19.08;;;14.40;99.90;;;;;;5045212;28;20538;-74
2022/10/03 05:54:08;;;;;;;34.78;17.38;;;14.40;99.90;;;;;;5046292;28;20072;-74
2022/10/03 05:57:06;;;;;;;41.63;17.02;;;14.40;99.90;;;;;;5052787;28;20060;-74
2022/10/03 06:00:01;;;;;;;23.70;16.30;;;14.50;99.90;;;;;;5051651;28;20080;-73
2022/10/03 06:02:53;;;;;;;28.30;18.30;;;14.70;99.90;;;;;;5052304;28;20041;-73
2022/10/03 06:06:01;;;;;;;55.47;22.88;;;14.60;99.90;;;;;;5050643;28;20037;-74
2022/10/03 06:08:49;;;;;;;23.83;16.90;;;14.60;99.90;;;;;;5032407;28;20049;-73
2022/10/03 06:11:59;;;;;;;20.00;15.18;;;14.60;99.90;;;;;;5031512;28;20103;-73
2022/10/03 06:14:50;;;;;;;36.72;15.98;;;14.90;99.90;;;;;;4978685;28;20512;-74
2022/10/03 06:17:41;;;;;;;19.95;15.57;;;15.10;99.90;;;;;;4978110;28;20533;-74
2022/10/03 06:20:29;;;;;;;19.65;15.48;;;15.00;99.90;;;;;;5044162;28;20128;-73
2022/10/03 06:23:30;;;;;;;22.15;17.27;;;15.00;99.90;;;;;;5049168;28;20049;-73
2022/10/03 06:26:25;;;;;;;20.52;15.27;;;15.20;99.90;;;;;;5036689;28;20046;-73
2022/10/03 06:29:28;;;;;;;21.60;15.90;;;15.50;99.90;;;;;;5036859;28;20457;-73
2022/10/03 06:32:45;;;;;;;20.58;14.10;;;15.90;99.90;;;;;;5036540;28;20061;-74
2022/10/03 06:36:13;;;;;;;14.90;10.25;;;16.00;99.90;;;;;;5018876;28;20156;-74
2022/10/03 06:39:08;;;;;;;19.83;13.80;;;16.10;99.90;;;;;;5012248;28;20053;-74
2022/10/03 06:42:09;;;;;;;13.52;11.00;;;16.40;99.90;;;;;;5036059;28;20302;-74
2022/10/03 06:45:12;;;;;;;16.05;12.43;;;16.90;99.90;;;;;;5047205;28;20492;-74
2022/10/03 06:48:07;;;;;;;18.88;11.18;;;17.30;99.90;;;;;;5034438;28;20465;-73
2022/10/03 06:50:58;;;;;;;15.13;11.77;;;17.30;99.90;;;;;;5036109;28;20042;-74
2022/10/03 06:53:50;;;;;;;11.40;8.70;;;17.10;99.90;;;;;;5036273;28;20067;-73
2022/10/03 06:57:01;;;;;;;13.02;9.13;;;17.00;99.90;;;;;;5035829;28;20512;-74
2022/10/03 06:59:51;;;;;;;15.40;9.57;;;16.90;99.90;;;;;;5034989;28;20531;-74
2022/10/03 07:02:51;;;;;;;14.48;7.70;;;17.00;99.90;;;;;;5034944;28;20073;-73
2022/10/03 07:06:00;;;;;;;10.65;6.60;;;17.30;99.90;;;;;;5034982;28;20057;-73
2022/10/03 07:09:01;;;;;;;15.73;9.18;;;17.40;99.90;;;;;;5047974;28;20041;-73
2022/10/03 07:11:54;;;;;;;11.90;8.15;;;17.50;99.90;;;;;;5036605;28;20045;-74
2022/10/03 07:14:54;;;;;;;9.75;5.55;;;17.40;99.90;;;;;;5055362;28;20071;-73
2022/10/03 07:18:16;;;;;;;7.90;5.28;;;17.30;99.90;;;;;;5055655;28;20484;-73
2022/10/03 07:21:16;;;;;;;9.77;5.15;;;17.60;99.90;;;;;;5013877;28;20128;-74
2022/10/03 07:24:15;;;;;;;16.83;8.25;;;17.80;99.90;;;;;;5009995;28;20137;-73
2022/10/03 07:27:15;;;;;;;10.88;4.43;;;18.40;99.90;;;;;;5055501;28;20362;-73
2022/10/03 07:30:05;;;;;;;8.68;4.68;;;18.80;99.90;;;;;;5055081;28;20067;-74
2022/10/03 07:33:05;;;;;;;10.30;4.97;;;18.40;99.90;;;;;;5055528;28;20033;-73
2022/10/03 07:39:02;;;;;;;11.50;6.32;;;17.90;99.90;;;;;;5055487;28;20471;-74
2022/10/03 07:42:10;;;;;;;7.90;4.00;;;18.00;99.90;;;;;;5058601;28;20039;-74
2022/10/03 07:45:21;;;;;;;7.57;3.97;;;18.00;99.90;;;;;;5056247;28;20041;-74
2022/10/03 07:48:21;;;;;;;13.55;7.18;;;17.80;99.90;;;;;;5054257;28;20049;-74
2022/10/03 07:51:16;;;;;;;10.90;4.68;;;17.90;99.90;;;;;;5055008;28;20041;-74
2022/10/03 07:54:23;;;;;;;16.20;10.30;;;18.10;99.90;;;;;;5054114;28;20131;-74
2022/10/03 07:57:05;;;;;;;7.25;4.43;;;18.40;99.90;;;;;;5054840;28;20061;-74
2022/10/03 08:00:06;;;;;;;5.97;3.10;;;18.10;99.90;;;;;;5054911;28;20041;-74
2022/10/03 08:03:15;;;;;;;13.07;4.35;;;18.00;99.90;;;;;;5054869;28;20049;-74
2022/10/03 08:05:57;;;;;;;10.52;3.70;;;17.90;99.90;;;;;;5033866;28;20107;-73
2022/10/03 08:09:03;;;;;;;12.13;4.93;;;18.10;99.90;;;;;;5051435;28;20049;-73
2022/10/03 08:12:04;;;;;;;9.70;3.92;;;18.30;99.90;;;;;;5035117;28;20056;-74
2022/10/03 08:14:44;;;;;;;9.75;4.75;;;18.30;99.90;;;;;;5034779;28;20045;-73
2022/10/03 08:17:46;;;;;;;11.77;3.85;;;18.30;99.90;;;;;;5033942;28;20072;-74
2022/10/03 08:20:40;;;;;;;12.82;4.50;;;18.50;99.90;;;;;;5010848;28;20081;-74
2022/10/03 08:24:05;;;;;;;11.70;5.15;;;18.50;99.90;;;;;;5028523;28;20069;-74
2022/10/03 08:26:55;;;;;;;11.77;4.25;;;18.40;99.90;;;;;;5034547;28;20456;-73
2022/10/03 08:30:01;;;;;;;11.55;6.40;;;18.50;99.90;;;;;;5034563;28;20038;-74
2022/10/03 08:32:57;;;;;;;7.93;3.20;;;18.20;99.90;;;;;;4999248;28;20129;-73
2022/10/03 08:35:41;;;;;;;9.50;4.38;;;18.20;99.90;;;;;;5033412;28;20068;-75
2022/10/03 08:38:49;;;;;;;11.80;3.58;;;18.40;99.90;;;;;;5034408;28;20069;-74
2022/10/03 08:41:55;;;;;;;9.98;3.88;;;18.50;99.90;;;;;;5031707;28;20107;-74
2022/10/03 08:45:03;;;;;;;12.02;4.90;;;18.50;99.90;;;;;;5033947;28;20464;-75
2022/10/03 08:48:19;;;;;;;11.95;4.65;;;18.60;99.90;;;;;;4973442;28;20085;-73
2022/10/03 08:51:11;;;;;;;6.80;2.58;;;18.70;99.90;;;;;;5033862;28;20160;-73
2022/10/03 08:53:56;;;;;;;6.78;2.28;;;18.90;99.90;;;;;;5035053;28;20444;-72
2022/10/03 08:56:33;;;;;;;13.27;5.57;;;19.20;99.90;;;;;;5033097;28;20053;-72
2022/10/03 08:59:29;;;;;;;9.23;3.50;;;19.30;99.90;;;;;;5034301;28;20489;-73
2022/10/03 09:02:22;;;;;;;7.53;3.33;;;19.20;99.90;;;;;;5034255;28;20121;-72
2022/10/03 09:05:32;;;;;;;10.05;5.55;;;19.40;99.90;;;;;;5002063;28;20061;-72
2022/10/03 09:08:42;;;;;;;5.88;2.60;;;19.60;99.90;;;;;;5050693;28;20037;-72
2022/10/03 09:11:46;;;;;;;8.88;2.70;;;19.60;99.90;;;;;;4960257;28;20134;-72
2022/10/03 09:15:03;;;;;;;5.47;1.65;;;19.40;99.90;;;;;;5052781;28;20044;-73
2022/10/03 09:18:28;;;;;;;12.00;7.40;;;19.50;99.90;;;;;;4992005;28;20470;-72
2022/10/03 09:21:32;;;;;;;6.90;3.53;;;19.80;99.90;;;;;;4992328;28;20050;-74
2022/10/03 09:24:35;;;;;;;3.85;1.83;;;20.00;99.90;;;;;;5017347;28;20068;-73
2022/10/03 09:27:43;;;;;;;4.93;2.20;;;19.90;99.90;;;;;;5051802;28;20136;-73
2022/10/03 09:30:34;;;;;;;10.07;3.92;;;19.60;99.90;;;;;;4994681;28;20053;-73
2022/10/03 09:33:43;;;;;;;4.45;1.65;;;19.80;99.90;;;;;;5011885;28;20050;-73
2022/10/03 09:36:42;;;;;;;4.97;2.70;;;19.60;99.40;;;;;;5048464;28;20057;-74
2022/10/03 09:39:38;;;;;;;5.30;2.13;;;19.90;97.80;;;;;;5052020;28;20053;-73
2022/10/03 09:42:46;;;;;;;7.63;3.93;;;19.80;97.60;;;;;;5053190;28;20047;-74
2022/10/03 09:45:46;;;;;;;7.60;2.83;;;19.80;96.70;;;;;;5043460;28;20324;-74
2022/10/03 09:48:35;;;;;;;6.07;2.53;;;19.70;97.00;;;;;;5055119;28;20049;-72
2022/10/03 09:51:21;;;;;;;8.73;1.80;;;19.70;95.90;;;;;;5052843;28;20516;-73
2022/10/03 09:54:28;;;;;;;7.10;2.42;;;19.70;96.40;;;;;;5053748;28;20068;-74
2022/10/03 09:57:39;;;;;;;5.63;1.90;;;19.80;96.10;;;;;;5051824;28;20102;-74
2022/10/03 10:00:20;;;;;;;11.38;3.25;;;20.10;95.90;;;;;;5018179;28;20053;-74
2022/10/03 10:03:34;;;;;;;7.43;2.40;;;20.40;94.90;;;;;;5053149;28;20045;-74
2022/10/03 10:06:35;;;;;;;6.68;1.25;;;20.70;95.20;;;;;;5047101;28;20067;-74
2022/10/03 10:09:37;;;;;;;7.97;3.15;;;20.80;93.70;;;;;;5048308;28;20044;-74
2022/10/03 10:12:33;;;;;;;5.55;2.42;;;20.90;93.40;;;;;;5052683;28;20065;-72
2022/10/03 10:15:28;;;;;;;8.23;4.32;;;21.10;93.30;;;;;;5053154;28;20084;-73
2022/10/03 10:18:22;;;;;;;4.70;1.80;;;21.30;92.90;;;;;;5052885;28;20037;-74
2022/10/03 10:21:21;;;;;;;4.82;2.05;;;20.90;91.30;;;;;;5047365;28;20124;-74
2022/10/03 10:24:03;;;;;;;6.68;2.38;;;20.80;92.40;;;;;;5052594;28;20044;-74
2022/10/03 10:27:13;;;;;;;6.25;2.90;;;20.70;91.00;;;;;;5052262;28;20095;-73
2022/10/03 10:30:19;;;;;;;6.35;1.60;;;20.50;91.80;;;;;;5050967;28;20138;-74
2022/10/03 10:33:24;;;;;;;8.85;2.38;;;20.20;91.20;;;;;;5052402;28;20075;-73
2022/10/03 10:36:36;;;;;;;6.70;2.00;;;20.30;91.90;;;;;;5045819;28;20072;-73
2022/10/03 10:39:34;;;;;;;5.07;1.60;;;20.70;91.70;;;;;;5051680;28;20110;-74
2022/10/03 10:42:44;;;;;;;5.13;1.67;;;20.60;91.00;;;;;;5052145;28;20091;-74
2022/10/03 10:45:49;;;;;;;6.13;1.90;;;20.50;91.00;;;;;;5042145;28;20127;-74
2022/10/03 10:48:46;;;;;;;8.00;4.15;;;20.30;91.60;;;;;;5051532;28;20061;-74
2022/10/03 10:51:56;;;;;;;8.95;3.65;;;20.10;91.70;;;;;;5018679;28;20132;-73
2022/10/03 10:54:53;;;;;;;11.18;4.30;;;19.90;92.50;;;;;;5052670;28;20045;-74
2022/10/03 10:57:39;;;;;;;9.20;3.38;;;19.90;92.70;;;;;;5052011;28;20071;-74
2022/10/03 11:00:29;;;;;;;7.03;3.05;;;19.90;92.80;;;;;;5021422;28;20067;-74
2022/10/03 11:03:39;;;;;;;5.32;2.53;;;20.00;91.80;;;;;;5055816;28;20488;-74
2022/10/03 11:06:52;;;;;;;7.55;3.10;;;20.00;92.30;;;;;;5047773;28;20455;-73
2022/10/03 11:09:46;;;;;;;8.45;2.53;;;20.10;93.40;;;;;;5056303;28;20128;-74
2022/10/03 11:12:57;;;;;;;7.57;2.33;;;20.00;92.20;;;;;;5055283;28;20065;-74
2022/10/03 11:16:12;;;;;;;7.63;2.97;;;20.00;91.40;;;;;;5055739;28;20069;-73
2022/10/03 11:19:13;;;;;;;7.47;2.45;;;20.10;92.30;;;;;;5053942;28;20053;-73
2022/10/03 11:22:28;;;;;;;7.95;2.70;;;20.20;92.40;;;;;;5053764;28;20483;-74
2022/10/03 11:25:28;;;;;;;5.75;2.22;;;20.20;92.50;;;;;;5037270;28;20142;-73
2022/10/03 11:28:26;;;;;;;9.48;4.88;;;20.20;92.20;;;;;;5055413;28;20461;-73
2022/10/03 11:31:15;;;;;;;9.07;2.88;;;19.90;93.40;;;;;;5054756;28;20056;-73
2022/10/03 11:34:31;;;;;;;7.00;2.15;;;19.90;93.00;;;;;;5054555;28;20095;-73
2022/10/03 11:37:08;;;;;;;8.23;2.67;;;19.90;92.90;;;;;;5054613;28;20076;-74
2022/10/03 11:39:47;;;;;;;9.95;2.88;;;20.30;92.60;;;;;;5056038;28;20056;-73
2022/10/03 11:42:38;;;;;;;5.68;3.08;;;20.50;92.00;;;;;;5055010;28;20120;-73
2022/10/03 11:45:20;;;;;;;8.85;1.92;;;20.10;92.50;;;;;;5055265;28;20041;-74
2022/10/03 11:47:57;;;;;;;10.10;3.47;;;19.40;92.90;;;;;;5053636;28;20040;-73
2022/10/03 11:50:37;;;;;;;7.65;3.78;;;19.70;93.70;;;;;;5054457;28;20454;-81
2022/10/03 11:53:23;;;;;;;9.15;3.78;;;19.90;93.30;;;;;;5055429;28;20482;-74
2022/10/03 11:56:01;;;;;;;6.43;2.35;;;20.10;93.00;;;;;;5051540;28;20052;-75
2022/10/03 11:58:34;;;;;;;9.38;2.45;;;20.30;92.50;;;;;;5035270;28;20502;-73
2022/10/03 12:01:24;;;;;;;4.30;2.10;;;20.50;92.80;;;;;;5035230;28;20120;-73
2022/10/03 12:03:57;;;;;;;6.30;2.03;;;20.40;91.80;;;;;;5048499;28;20037;-74
2022/10/03 12:09:45;;;;;;;4.70;1.27;;;19.70;90.70;;;;;;5047386;28;20036;-74
2022/10/03 12:12:20;;;;;;;5.72;2.10;;;19.70;90.70;;;;;;5051772;28;20095;-74
2022/10/03 12:14:51;;;;;;;8.82;2.47;;;19.60;90.70;;;;;;5053561;28;20040;-73
2022/10/03 12:17:31;;;;;;;9.10;3.03;;;19.40;91.00;;;;;;5054445;28;20045;-73
2022/10/03 12:20:09;;;;;;;7.80;2.25;;;19.30;91.00;;;;;;5055362;28;20125;-74
2022/10/03 12:22:47;;;;;;;8.15;3.65;;;19.20;91.30;;;;;;5054216;28;20041;-73
2022/10/03 12:25:20;;;;;;;7.55;3.90;;;18.90;92.40;;;;;;5054904;28;20041;-72
2022/10/03 12:28:13;;;;;;;8.43;2.90;;;19.10;92.40;;;;;;5040438;28;20386;-74
2022/10/03 12:30:47;;;;;;;6.28;2.38;;;19.40;92.60;;;;;;5035141;28;20041;-75
2022/10/03 12:33:40;;;;;;;5.68;1.95;;;19.50;92.60;;;;;;5034074;28;20120;-73
2022/10/03 12:36:14;;;;;;;6.55;2.97;;;19.50;92.40;;;;;;5039010;28;20076;-74
2022/10/03 12:38:56;;;;;;;6.03;3.55;;;19.50;92.30;;;;;;5054058;28;20446;-74
2022/10/03 12:41:35;;;;;;;8.25;3.30;;;19.40;93.20;;;;;;5035257;28;20076;-75
2022/10/03 12:44:17;;;;;;;9.35;2.80;;;19.30;93.50;;;;;;5033807;28;20401;-74
2022/10/03 12:46:51;;;;;;;4.90;1.75;;;19.20;93.40;;;;;;5033760;28;20081;-73
2022/10/03 12:49:34;;;;;;;5.10;2.30;;;19.10;93.40;;;;;;5043173;28;20074;-74
2022/10/03 12:52:07;;;;;;;8.18;2.17;;;19.20;93.40;;;;;;5052769;28;20037;-73
2022/10/03 12:54:45;;;;;;;7.35;3.03;;;19.20;93.20;;;;;;5051289;28;20135;-74
2022/10/03 12:57:46;;;;;;;8.18;3.25;;;19.10;93.60;;;;;;5053454;28;20068;-73
2022/10/03 13:00:20;;;;;;;8.13;2.13;;;18.90;93.70;;;;;;5048531;28;20053;-74
2022/10/03 13:03:06;;;;;;;10.32;2.42;;;18.90;94.00;;;;;;5047850;28;20120;-73
2022/10/03 13:05:54;;;;;;;7.57;3.20;;;19.00;94.40;;;;;;5050004;28;20044;-74
2022/10/03 13:08:41;;;;;;;10.70;5.22;;;19.10;94.20;;;;;;5052867;28;20040;-74
2022/10/03 13:11:24;;;;;;;10.82;4.10;;;19.20;94.40;;;;;;5042399;28;20497;-73
2022/10/03 13:14:06;;;;;;;12.32;6.80;;;19.30;94.30;;;;;;5052361;28;20036;-73
2022/10/03 13:16:39;;;;;;;8.55;4.75;;;19.30;94.10;;;;;;5053258;28;20136;-73
2022/10/03 13:19:12;;;;;;;11.13;5.05;;;19.40;94.10;;;;;;5053400;28;20107;-73
2022/10/03 13:22:02;;;;;;;9.65;5.93;;;19.50;93.70;;;;;;5053135;28;20048;-73
2022/10/03 13:24:35;;;;;;;9.43;4.05;;;19.50;93.70;;;;;;5053262;28;20068;-74
2022/10/03 13:27:19;;;;;;;7.85;3.78;;;19.50;93.40;;;;;;5053581;28;20408;-73
2022/10/03 13:29:50;;;;;;;9.65;4.75;;;19.40;93.50;;;;;;5037102;28;20043;-73
2022/10/03 13:32:30;;;;;;;16.08;8.95;;;19.30;93.90;;;;;;5037804;28;20120;-72
2022/10/03 13:38:30;;;;;;;10.40;3.30;;;19.00;94.50;;;;;;5050044;28;20599;-72
2022/10/03 13:41:05;;;;;;;9.23;2.05;;;18.70;93.60;;;;;;5053240;28;20472;-73
2022/10/03 13:43:36;;;;;;;4.22;1.45;;;18.70;92.70;;;;;;5052777;28;20496;-73
2022/10/03 13:46:10;;;;;;;6.15;1.70;;;18.60;92.40;;;;;;5050578;28;20067;-73
2022/10/03 13:48:39;;;;;;;5.85;2.05;;;18.50;92.70;;;;;;5052661;28;20102;-73
2022/10/03 13:51:19;;;;;;;7.07;1.50;;;18.60;93.30;;;;;;5051908;28;20080;-74
2022/10/03 13:54:08;;;;;;;6.85;1.83;;;18.70;92.40;;;;;;5052564;28;20488;-73
2022/10/03 13:56:46;;;;;;;5.90;2.17;;;18.50;92.40;;;;;;5051308;28;20076;-73
2022/10/03 13:59:39;;;;;;;7.22;2.53;;;18.60;92.90;;;;;;5047936;28;20079;-73
2022/10/03 14:02:32;;;;;;;5.57;2.00;;;18.60;92.90;;;;;;5048717;28;20069;-72
2022/10/03 14:05:10;;;;;;;7.13;1.90;;;18.60;92.60;;;;;;5036507;28;20065;-74
2022/10/03 14:07:47;;;;;;;6.50;1.55;;;18.50;92.30;;;;;;5045108;28;20044;-73
2022/10/03 14:10:29;;;;;;;4.43;1.40;;;18.60;91.40;;;;;;5052147;28;20076;-73
2022/10/03 14:13:12;;;;;;;7.05;1.48;;;18.60;90.40;;;;;;5052521;28;20033;-73
2022/10/03 14:15:49;;;;;;;5.35;2.05;;;18.60;90.40;;;;;;5050444;28;20045;-73
2022/10/03 14:18:39;;;;;;;6.13;2.20;;;18.60;89.90;;;;;;5052731;28;20110;-73
2022/10/03 14:21:27;;;;;;;5.60;1.70;;;18.50;88.40;;;;;;5053094;28;20457;-73
2022/10/03 14:24:03;;;;;;;3.53;1.00;;;18.50;87.40;;;;;;5052409;28;20132;-73
2022/10/03 14:26:38;;;;;;;5.75;1.70;;;18.50;88.00;;;;;;5053030;28;20437;-74
2022/10/03 14:29:13;;;;;;;5.68;1.77;;;18.60;87.80;;;;;;5051342;28;20140;-73
2022/10/03 14:31:47;;;;;;;5.18;1.77;;;18.60;88.60;;;;;;5053122;28;20040;-74
2022/10/03 14:34:24;;;;;;;7.00;2.25;;;18.60;88.50;;;;;;5054685;28;20064;-73
2022/10/03 14:36:58;;;;;;;4.93;1.67;;;18.60;88.70;;;;;;5055725;28;20107;-73
2022/10/03 14:39:35;;;;;;;5.07;1.70;;;18.50;89.30;;;;;;5057399;28;20096;-72
2022/10/03 14:42:26;;;;;;;3.63;1.50;;;18.50;88.10;;;;;;5058212;28;20037;-73
2022/10/03 14:44:57;;;;;;;7.47;2.10;;;18.40;88.90;;;;;;5056803;28;20108;-73
2022/10/03 14:47:26;;;;;;;4.97;1.95;;;18.40;89.80;;;;;;5062152;28;20049;-74
2022/10/03 14:49:55;;;;;;;4.53;2.22;;;18.40;89.50;;;;;;5065180;28;20124;-73